.
WxDataArchive / Data Records for 2010-10-03
2010-10-02 October 2010 2010-10-04

Data Records for Sunday, 03 October 2010

Time	Temp	Chill	HIndex	Humid	Dewpt	 Wind 	HiWind	WindDir	Rain 	Barom 
-----	----	-----	------	-----	-----	------	------	-------	-----	----- 
00:00	46.4	46.4	46.4	81	40.9	0	2	0	0.00	30.194 
00:05	46.4	46.4	46.4	81	40.9	0	2	292	0.00	30.194 
00:10	46.4	46.4	46.4	81	40.9	0	2	338	0.00	30.194 
00:15	46.2	46.2	46.2	81	40.7	0	2	338	0.00	30.192 
00:20	46.2	46.2	46.2	81	40.7	0	3	338	0.00	30.192 
00:25	46.1	46.1	46.1	80	40.3	0	4	315	0.00	30.192 
00:30	46.1	46.1	46.1	80	40.3	0	4	315	0.00	30.192 
00:35	46.1	46.1	46.1	80	40.3	0	4	68	0.00	30.192 
00:40	46.1	46.1	46.1	80	40.3	0	2	68	0.00	30.192 
00:45	46.0	46.0	46.0	79	39.9	0	4	248	0.00	30.192 
00:50	46.0	46.0	46.0	79	39.9	0	2	315	0.00	30.192 
00:55	46.0	46.0	46.0	78	39.5	0	2	45	0.00	30.192 
01:00	45.8	45.8	45.8	78	39.3	0	4	270	0.00	30.192 
01:05	45.8	45.8	45.8	77	39.0	1	5	270	0.00	30.192 
01:10	45.8	45.8	45.8	77	39.0	1	5	0	0.00	30.192 
01:15	45.7	45.7	45.7	77	38.9	0	3	338	0.00	30.194 
01:20	45.7	45.7	45.7	77	38.9	0	2	292	0.00	30.194 
01:25	45.7	45.7	45.7	77	38.9	1	3	270	0.00	30.194 
01:30	45.5	45.5	45.5	76	38.4	0	2	315	0.00	30.193 
01:35	45.5	45.5	45.5	76	38.4	1	4	315	0.00	30.193 
01:40	45.5	45.5	45.5	75	38.0	1	6	338	0.00	30.193 
01:45	45.5	45.5	45.5	75	38.0	1	4	315	0.00	30.193 
01:50	45.4	45.4	45.4	75	37.9	0	3	270	0.00	30.193 
01:55	45.4	45.4	45.4	75	37.9	0	2	292	0.00	30.193 
02:00	45.4	45.4	45.4	76	38.3	0	4	292	0.00	30.194 
02:05	45.2	45.2	45.2	75	37.8	1	4	292	0.00	30.194 
02:10	45.2	45.2	45.2	75	37.8	1	5	270	0.00	30.194 
02:15	45.2	45.2	45.2	76	38.1	0	3	248	0.00	30.194 
02:20	45.1	45.1	45.1	76	38.0	0	2	248	0.00	30.194 
02:25	45.1	45.1	45.1	76	38.0	0	4	315	0.00	30.194 
02:30	45.1	45.1	45.1	76	38.0	0	4	315	0.00	30.198 
02:35	45.1	45.1	45.1	75	37.7	1	4	315	0.00	30.198 
02:40	45.1	45.1	45.1	75	37.7	0	3	315	0.00	30.198 
02:45	45.1	45.1	45.1	75	37.7	0	2	338	0.00	30.200 
02:50	44.9	44.9	44.9	75	37.5	0	5	292	0.00	30.200 
02:55	44.9	44.9	44.9	74	37.1	0	2	0	0.00	30.200 
03:00	44.9	44.9	44.9	74	37.1	0	2	248	0.00	30.202 
03:05	44.8	44.8	44.8	75	37.4	0	2	248	0.00	30.202 
03:10	44.8	44.8	44.8	74	37.0	0	3	248	0.00	30.202 
03:15	44.6	44.6	44.6	74	36.8	1	5	292	0.00	30.202 
03:20	44.6	44.6	44.6	74	36.8	1	5	292	0.00	30.202 
03:25	44.6	44.6	44.6	73	36.5	0	4	315	0.00	30.202 
03:30	44.6	44.6	44.6	73	36.5	1	2	315	0.00	30.207 
03:35	44.6	44.6	44.6	73	36.5	0	3	270	0.00	30.207 
03:40	44.5	44.5	44.5	74	36.7	0	2	270	0.00	30.207 
03:45	44.5	44.5	44.5	73	36.4	0	3	270	0.00	30.207 
03:50	44.5	44.5	44.5	73	36.4	0	2	270	0.00	30.207 
03:55	44.5	44.5	44.5	73	36.4	0	3	315	0.00	30.207 
04:00	44.5	44.5	44.5	73	36.4	0	3	22	0.00	30.210 
04:05	44.5	44.5	44.5	73	36.4	0	4	248	0.00	30.210 
04:10	44.3	44.3	44.3	73	36.2	0	4	248	0.00	30.210 
04:15	44.3	44.3	44.3	73	36.2	0	2	248	0.00	30.212 
04:20	44.3	44.3	44.3	73	36.2	1	3	248	0.00	30.212 
04:25	44.3	44.3	44.3	73	36.2	0	3	292	0.00	30.212 
04:30	44.3	44.3	44.3	72	35.9	1	5	270	0.00	30.213 
04:35	44.3	44.3	44.3	73	36.2	0	2	270	0.00	30.213 
04:40	44.2	44.2	44.2	72	35.8	0	2	270	0.00	30.213 
04:45	44.2	44.2	44.2	72	35.8	0	4	292	0.00	30.214 
04:50	44.1	44.1	44.1	72	35.7	1	3	315	0.00	30.214 
04:55	43.9	43.9	43.9	72	35.5	1	4	315	0.00	30.214 
05:00	43.8	43.8	43.8	72	35.4	1	5	0	0.00	30.215 
05:05	43.6	43.6	43.6	73	35.5	0	4	292	0.00	30.215 
05:10	43.3	43.3	43.3	73	35.2	0	1	270	0.00	30.215 
05:15	43.2	43.2	43.2	74	35.5	0	2	270	0.00	30.217 
05:20	42.9	42.9	42.9	74	35.2	1	3	338	0.00	30.217 
05:25	42.8	42.8	42.8	75	35.4	0	1	338	0.00	30.217 
05:30	42.5	42.5	42.5	75	35.1	0	3	270	0.00	30.219 
05:35	42.3	42.3	42.3	75	35.0	0	3	270	0.00	30.219 
05:40	42.2	42.2	42.2	75	34.9	0	2	270	0.00	30.219 
05:45	42.1	42.1	42.1	76	35.1	1	4	270	0.00	30.225 
05:50	41.9	41.9	41.9	76	34.9	1	4	135	0.00	30.225 
05:55	41.8	41.8	41.8	76	34.8	0	2	0	0.00	30.225 
06:00	41.6	41.6	41.6	77	34.9	0	3	338	0.00	30.228 
06:05	41.6	41.6	41.6	77	34.9	0	2	338	0.00	30.228 
06:10	41.5	41.5	41.5	77	34.8	0	1	338	0.00	30.228 
06:15	41.3	41.3	41.3	78	35.0	0	4	270	0.00	30.232 
06:20	41.2	41.2	41.2	78	34.9	0	2	270	0.00	30.232 
06:25	41.1	41.1	41.1	79	35.1	0	3	0	0.00	30.232 
06:30	40.9	40.9	40.9	79	34.9	0	2	0	0.00	30.235 
06:35	40.8	40.8	40.8	80	35.1	0	2	315	0.00	30.235 
06:40	40.6	40.6	40.6	80	34.9	0	2	315	0.00	30.235 
06:45	40.5	40.5	40.5	80	34.8	0	2	292	0.00	30.238 
06:50	40.5	40.5	40.5	81	35.1	0	2	292	0.00	30.238 
06:55	40.3	40.3	40.3	81	34.9	0	1	292	0.00	30.238 
07:00	40.2	40.2	40.2	81	34.8	0	1	292	0.00	30.246 
07:05	40.2	40.2	40.2	81	34.8	0	3	292	0.00	30.246 
07:10	40.1	40.1	40.1	81	34.7	0	1	292	0.00	30.246 
07:15	40.1	40.1	40.1	81	34.7	0	1	292	0.00	30.251 
07:20	39.9	39.9	39.9	82	34.9	0	2	292	0.00	30.251 
07:25	39.9	39.9	39.9	82	34.9	1	3	292	0.00	30.251 
07:30	39.9	39.9	39.9	82	34.9	1	5	292	0.00	30.254 
07:35	39.8	39.8	39.8	82	34.8	0	2	315	0.00	30.254 
07:40	39.8	39.8	39.8	83	35.1	0	1	315	0.00	30.254 
07:45	39.6	39.6	39.6	83	34.9	0	2	315	0.00	30.257 
07:50	39.6	39.6	39.6	83	34.9	0	2	315	0.00	30.257 
07:55	39.5	39.5	39.5	84	35.1	0	3	315	0.00	30.257 
08:00	39.5	39.5	39.5	84	35.1	0	1	315	0.00	30.265 
08:05	39.6	39.6	39.6	84	35.2	0	2	315	0.00	30.265 
08:10	39.6	39.6	39.6	84	35.2	0	2	315	0.00	30.265 
08:15	39.8	39.8	39.8	84	35.4	0	1	315	0.00	30.269 
08:20	39.9	39.9	39.9	84	35.5	0	1	315	0.00	30.269 
08:25	40.1	40.1	40.1	84	35.7	0	2	315	0.00	30.269 
08:30	40.2	40.2	40.2	84	35.8	0	3	315	0.00	30.272 
08:35	40.3	40.3	40.3	84	35.9	1	4	270	0.00	30.272 
08:40	40.6	40.6	40.6	83	35.8	0	3	338	0.00	30.272 
08:45	40.8	40.8	40.8	83	36.0	0	2	338	0.00	30.277 
08:50	41.1	41.1	41.1	82	36.0	1	6	338	0.00	30.277 
08:55	41.3	41.3	41.3	82	36.2	0	5	315	0.00	30.277 
09:00	41.6	41.6	41.6	81	36.2	0	3	0	0.00	30.284 
09:05	41.9	41.9	41.9	81	36.5	1	5	0	0.00	30.284 
09:10	42.2	42.2	42.2	81	36.8	0	2	45	0.00	30.284 
09:15	42.5	42.5	42.5	80	36.8	0	4	270	0.00	30.285 
09:20	42.8	42.8	42.8	80	37.1	1	4	270	0.00	30.285 
09:25	43.1	43.1	43.1	79	37.0	1	5	315	0.00	30.285 
09:30	43.3	43.3	43.3	78	36.9	1	4	270	0.00	30.289 
09:35	43.6	43.6	43.6	78	37.2	1	3	0	0.00	30.289 
09:40	44.1	44.1	44.1	78	37.7	1	4	315	0.00	30.289 
09:45	44.3	44.3	44.3	77	37.6	1	7	315	0.00	30.296 
09:50	44.9	44.9	44.9	76	37.8	1	6	270	0.00	30.296 
09:55	45.4	45.4	45.4	76	38.3	0	1	0	0.00	30.296 
10:00	45.8	45.8	45.8	74	38.0	1	4	270	0.00	30.296 
10:05	46.2	46.2	46.2	74	38.4	1	5	270	0.00	30.296 
10:10	46.8	46.8	46.8	72	38.3	2	6	292	0.00	30.296 
10:15	47.4	47.4	47.4	70	38.1	1	6	292	0.00	30.295 
10:20	48.2	48.2	48.2	69	38.5	1	4	338	0.00	30.295 
10:25	48.9	48.9	48.9	66	38.0	1	5	90	0.00	30.295 
10:30	49.4	49.4	49.4	64	37.7	1	6	315	0.00	30.291 
10:35	49.8	49.8	49.8	63	37.7	1	7	315	0.00	30.291 
10:40	50.5	50.5	50.5	63	38.4	1	4	90	0.00	30.291 
10:45	50.7	50.7	50.7	61	37.7	2	7	292	0.00	30.291 
10:50	51.1	51.1	51.1	62	38.5	1	6	112	0.00	30.291 
10:55	51.6	51.6	51.6	61	38.6	2	5	292	0.00	30.291 
11:00	51.7	51.7	51.7	60	38.3	2	14	315	0.00	30.293 
11:05	51.4	51.4	51.4	60	38.0	2	7	292	0.00	30.293 
11:10	51.3	51.3	51.3	59	37.5	1	4	315	0.00	30.293 
11:15	51.4	51.4	51.4	59	37.6	2	11	135	0.00	30.296 
11:20	51.7	51.7	51.7	61	38.7	2	7	90	0.00	30.296 
11:25	52.3	52.3	52.3	62	39.7	2	5	158	0.00	30.296 
11:30	52.3	52.3	52.3	58	38.0	2	7	315	0.00	30.298 
11:35	51.3	51.3	51.3	60	37.9	1	4	0	0.00	30.298 
11:40	51.0	51.0	51.0	61	38.0	1	7	112	0.00	30.298 
11:45	50.7	50.7	50.7	61	37.7	2	14	112	0.00	30.305 
11:50	50.8	50.8	50.8	62	38.3	2	10	90	0.00	30.305 
11:55	52.2	52.2	52.2	63	40.0	1	5	292	0.00	30.305 
12:00	53.5	53.5	53.5	58	39.1	1	4	315	0.00	30.303 
12:05	53.1	53.1	53.1	58	38.7	1	5	315	0.00	30.303 
12:10	51.9	51.9	51.9	59	38.0	1	3	338	0.00	30.303 
12:15	51.4	51.4	51.4	61	38.4	1	3	270	0.00	30.306 
12:20	51.4	51.4	51.4	59	37.6	2	6	292	0.00	30.306 
12:25	51.6	51.6	51.6	59	37.7	2	6	112	0.00	30.306 
12:30	51.9	51.9	51.9	59	38.0	1	3	270	0.00	30.304 
12:35	52.0	52.0	52.0	58	37.7	1	9	315	0.00	30.304 
12:40	51.9	51.9	51.9	59	38.0	2	7	270	0.00	30.304 
12:45	51.9	51.9	51.9	58	37.6	2	7	112	0.00	30.307 
12:50	51.7	51.7	51.7	59	37.8	1	5	45	0.00	30.307 
12:55	52.0	52.0	52.0	59	38.1	0	4	0	0.00	30.307 
13:00	52.3	52.3	52.3	60	38.8	1	5	338	0.00	30.306 
13:05	52.8	52.8	52.8	58	38.4	1	3	338	0.00	30.306 
13:10	52.8	52.8	52.8	58	38.4	1	4	315	0.00	30.306 
13:15	52.8	52.8	52.8	58	38.4	2	9	90	0.00	30.307 
13:20	52.3	52.3	52.3	59	38.4	2	6	292	0.00	30.307 
13:25	52.2	52.2	52.2	58	37.9	1	6	270	0.00	30.307 
13:30	52.0	52.0	52.0	58	37.7	1	4	292	0.00	30.306 
13:35	52.2	52.2	52.2	58	37.9	2	7	22	0.00	30.306 
13:40	52.0	52.0	52.0	58	37.7	1	6	292	0.00	30.306 
13:45	52.2	52.2	52.2	58	37.9	2	7	135	0.00	30.300 
13:50	52.3	52.3	52.3	58	38.0	1	6	135	0.00	30.300 
13:55	52.5	52.5	52.5	58	38.2	1	9	112	0.00	30.300 
14:00	52.8	52.8	52.8	56	37.5	1	4	270	0.00	30.293 
14:05	52.9	52.9	52.9	55	37.2	1	7	68	0.00	30.293 
14:10	53.2	53.2	53.2	55	37.5	1	3	292	0.00	30.293 
14:15	53.5	53.5	53.5	55	37.7	1	4	135	0.00	30.290 
14:20	54.1	54.1	54.1	54	37.8	1	6	135	0.00	30.290 
14:25	54.2	54.2	54.2	55	38.4	1	4	22	0.00	30.290 
14:30	53.3	53.3	53.3	54	37.1	1	3	292	0.00	30.289 
14:35	52.8	52.8	52.8	55	37.1	1	3	338	0.00	30.289 
14:40	52.5	52.5	52.5	54	36.3	1	6	270	0.00	30.289 
14:45	52.8	52.8	52.8	57	38.0	1	4	338	0.00	30.285 
14:50	53.2	53.2	53.2	55	37.5	1	6	22	0.00	30.285 
14:55	53.5	53.5	53.5	54	37.3	2	6	112	0.00	30.285 
15:00	53.6	53.6	53.6	54	37.4	1	6	135	0.00	30.279 
15:05	53.8	53.8	53.8	55	38.0	0	2	135	0.00	30.279 
15:10	54.4	54.4	54.4	51	36.7	1	6	135	0.00	30.279 
15:15	54.2	54.2	54.2	52	37.0	2	5	292	0.00	30.280 
15:20	53.6	53.6	53.6	54	37.4	1	6	90	0.00	30.280 
15:25	53.2	53.2	53.2	54	37.0	1	3	292	0.00	30.280 
15:30	53.1	53.1	53.1	54	36.9	1	5	292	0.00	30.278 
15:35	52.9	52.9	52.9	54	36.7	1	3	270	0.00	30.278 
15:40	53.1	53.1	53.1	54	36.9	1	4	270	0.00	30.278 
15:45	53.2	53.2	53.2	53	36.5	1	3	338	0.00	30.277 
15:50	53.3	53.3	53.3	51	35.6	1	4	338	0.00	30.277 
15:55	53.5	53.5	53.5	51	35.8	1	5	112	0.00	30.277 
16:00	53.6	53.6	53.6	51	35.9	1	4	292	0.00	30.277 
16:05	53.6	53.6	53.6	51	35.9	1	3	68	0.00	30.277 
16:10	53.5	53.5	53.5	51	35.8	1	7	22	0.00	30.277 
16:15	53.6	53.6	53.6	51	35.9	1	4	338	0.00	30.277 
16:20	53.6	53.6	53.6	51	35.9	1	3	270	0.00	30.277 
16:25	53.6	53.6	53.6	52	36.4	0	2	270	0.00	30.277 
16:30	53.9	53.9	53.9	51	36.2	0	5	270	0.00	30.276 
16:35	53.9	53.9	53.9	54	37.6	0	3	0	0.00	30.276 
16:40	53.6	53.6	53.6	51	35.9	1	4	338	0.00	30.276 
16:45	53.5	53.5	53.5	52	36.3	1	5	292	0.00	30.278 
16:50	53.2	53.2	53.2	52	36.0	1	6	90	0.00	30.278 
16:55	53.1	53.1	53.1	54	36.9	0	3	292	0.00	30.278 
17:00	52.9	52.9	52.9	53	36.2	0	2	292	0.00	30.280 
17:05	52.8	52.8	52.8	53	36.1	1	5	248	0.00	30.280 
17:10	52.8	52.8	52.8	52	35.7	1	3	270	0.00	30.280 
17:15	52.8	52.8	52.8	54	36.6	0	1	270	0.00	30.284 
17:20	52.9	52.9	52.9	54	36.7	1	4	315	0.00	30.284 
17:25	52.9	52.9	52.9	54	36.7	0	6	135	0.00	30.284 
17:30	52.9	52.9	52.9	54	36.7	0	3	112	0.00	30.286 
17:35	52.9	52.9	52.9	55	37.2	0	4	112	0.00	30.286 
17:40	52.8	52.8	52.8	54	36.6	1	3	112	0.00	30.286 
17:45	52.6	52.6	52.6	53	36.0	0	3	22	0.00	30.288 
17:50	52.6	52.6	52.6	55	36.9	0	2	315	0.00	30.288 
17:55	52.5	52.5	52.5	54	36.3	0	3	135	0.00	30.288 
18:00	52.5	52.5	52.5	55	36.8	0	1	135	0.00	30.286 
18:05	52.5	52.5	52.5	55	36.8	0	4	135	0.00	30.286 
18:10	52.5	52.5	52.5	55	36.8	1	3	158	0.00	30.286 
18:15	52.5	52.5	52.5	55	36.8	0	2	158	0.00	30.288 
18:20	52.5	52.5	52.5	56	37.3	0	4	158	0.00	30.288 
18:25	52.3	52.3	52.3	56	37.1	0	2	248	0.00	30.288 
18:30	52.3	52.3	52.3	56	37.1	0	1	248	0.00	30.291 
18:35	52.3	52.3	52.3	56	37.1	0	3	248	0.00	30.291 
18:40	52.2	52.2	52.2	57	37.4	0	3	270	0.00	30.291 
18:45	52.2	52.2	52.2	57	37.4	0	1	270	0.00	30.296 
18:50	52.2	52.2	52.2	57	37.4	0	1	270	0.00	30.296 
18:55	52.0	52.0	52.0	56	36.8	0	1	270	0.00	30.296 
19:00	52.0	52.0	52.0	57	37.2	0	0	---	0.00	30.297 
19:05	51.9	51.9	51.9	57	37.1	0	0	---	0.00	30.297 
19:10	51.9	51.9	51.9	58	37.6	0	1	270	0.00	30.297 
19:15	51.7	51.7	51.7	58	37.4	0	3	135	0.00	30.298 
19:20	51.7	51.7	51.7	58	37.4	0	1	90	0.00	30.298 
19:25	51.6	51.6	51.6	58	37.3	0	1	90	0.00	30.298 
19:30	51.6	51.6	51.6	57	36.9	0	2	90	0.00	30.300 
19:35	51.6	51.6	51.6	58	37.3	0	2	112	0.00	30.300 
19:40	51.4	51.4	51.4	59	37.6	0	1	112	0.00	30.300 
19:45	51.3	51.3	51.3	58	37.0	0	1	112	0.00	30.302 
19:50	51.1	51.1	51.1	58	36.8	0	2	112	0.00	30.302 
19:55	51.0	51.0	51.0	58	36.7	0	1	112	0.00	30.302 
20:00	51.0	51.0	51.0	59	37.2	0	1	112	0.00	30.304 
20:05	50.8	50.8	50.8	60	37.4	0	1	112	0.00	30.304 
20:10	50.7	50.7	50.7	59	36.9	0	1	112	0.00	30.304 
20:15	50.7	50.7	50.7	60	37.3	0	1	112	0.00	30.302 
20:20	50.5	50.5	50.5	60	37.1	0	1	112	0.00	30.302 
20:25	50.5	50.5	50.5	61	37.6	0	1	112	0.00	30.302 
20:30	50.4	50.4	50.4	60	37.0	0	1	112	0.00	30.309 
20:35	50.4	50.4	50.4	61	37.5	0	1	112	0.00	30.309 
20:40	50.2	50.2	50.2	61	37.3	0	2	112	0.00	30.309 
20:45	50.2	50.2	50.2	61	37.3	0	2	315	0.00	30.312 
20:50	50.1	50.1	50.1	62	37.6	0	2	315	0.00	30.312 
20:55	50.1	50.1	50.1	62	37.6	0	1	315	0.00	30.312 
21:00	49.9	49.9	49.9	62	37.4	0	4	315	0.00	30.315 
21:05	49.8	49.8	49.8	62	37.3	0	1	315	0.00	30.315 
21:10	49.6	49.6	49.6	63	37.5	0	2	315	0.00	30.315 
21:15	49.5	49.5	49.5	63	37.4	0	1	315	0.00	30.316 
21:20	49.4	49.4	49.4	63	37.3	0	1	315	0.00	30.316 
21:25	49.2	49.2	49.2	64	37.5	0	0	---	0.00	30.316 
21:30	48.9	48.9	48.9	64	37.3	0	2	315	0.00	30.321 
21:35	48.6	48.6	48.6	65	37.4	0	1	315	0.00	30.321 
21:40	48.5	48.5	48.5	65	37.3	0	2	315	0.00	30.321 
21:45	48.2	48.2	48.2	65	37.0	0	1	315	0.00	30.324 
21:50	48.0	48.0	48.0	65	36.8	0	1	315	0.00	30.324 
21:55	47.9	47.9	47.9	65	36.7	0	2	315	0.00	30.324 
22:00	47.7	47.7	47.7	66	36.9	0	1	315	0.00	30.326 
22:05	47.7	47.7	47.7	66	36.9	0	1	315	0.00	30.326 
22:10	47.6	47.6	47.6	66	36.8	0	2	315	0.00	30.326 
22:15	47.4	47.4	47.4	66	36.6	0	2	315	0.00	30.323 
22:20	47.3	47.3	47.3	67	36.9	0	1	315	0.00	30.323 
22:25	47.1	47.1	47.1	67	36.7	0	4	315	0.00	30.323 
22:30	47.1	47.1	47.1	67	36.7	0	2	315	0.00	30.323 
22:35	47.0	47.0	47.0	68	37.0	0	2	315	0.00	30.323 
22:40	46.8	46.8	46.8	68	36.8	0	2	112	0.00	30.323 
22:45	46.7	46.7	46.7	68	36.7	0	2	112	0.00	30.324 
22:50	46.5	46.5	46.5	69	36.9	0	1	112	0.00	30.324 
22:55	46.5	46.5	46.5	69	36.9	0	1	112	0.00	30.324 
23:00	46.5	46.5	46.5	69	36.9	0	2	112	0.00	30.325 
23:05	46.5	46.5	46.5	69	36.9	0	1	112	0.00	30.325 
23:10	46.5	46.5	46.5	69	36.9	0	2	112	0.00	30.325 
23:15	46.5	46.5	46.5	68	36.5	0	1	112	0.00	30.327 
23:20	46.5	46.5	46.5	68	36.5	0	4	135	0.00	30.327 
23:25	46.5	46.5	46.5	67	36.1	0	5	90	0.00	30.327 
23:30	46.5	46.5	46.5	67	36.1	0	2	90	0.00	30.330 
23:35	46.5	46.5	46.5	67	36.1	0	1	68	0.00	30.330 
23:40	46.5	46.5	46.5	67	36.1	0	3	202	0.00	30.330 
23:45	46.2	46.2	46.2	67	35.9	0	1	202	0.00	30.329 
23:50	46.1	46.1	46.1	67	35.8	0	2	202	0.00	30.329 
23:55	46.0	46.0	46.0	68	36.0	0	0	---	0.00	30.329 

CoCoRaHS
IN-AL-39
A2 Web Hosting
Creative Commons License
GoDaddy
search engine by freefind advanced

loaded 2018-11-21 01:22:39 • last modified 2010-11-18 10:43:29
Privacy PolicyDisclaimer
• wx.awcolley.com is powered by PmWiki v.2002016 •
• all content (unless otherwise noted) © 2018 A W Colley